Ludlow, California
Current Conditions -  °F | °C
As of 1:56 PM on Monday 22 Dec 2014 (Local Time) from KNXP Reporting Station
Clear Clear  
Wind Chill: 75°   Ceiling: Unl
Heat Index: 75°   Visibility: 10mi
Dew Point: 37°   Wind: 13mph
Humidity: 25%   Direction: 330°NNW
Pressure: 30.04"   Gusts: NA
Location:  34.72°N, 116.16°W
Report Text: KNXP 222156Z 33011KT 10SM CLR 24/03 A3004 RMK AO2 SLP147 T02390028 $
Loading
Personal Weather Stations






























Interactive Weather Map New forecast layout! Learn more

10-Day Weather Forecast

Advertisements
Track Severe Weather on mobile